Revelstoke, Canada
Current Conditions -  °F | °C
As of 1:12 PM on Friday 19 Dec 2014 (Local Time) from CYRV Reporting Station
Light Rain Light Rain  
Wind Chill: 32°   Ceiling: 1900
Heat Index: 32°   Visibility: 4mi
Dew Point: 32°   Wind: 2mph
Humidity: 100%   Direction: NA
Pressure: 29.86"   Gusts: NA
Location:  51.01°N, 118.21°W
Report Text: CYRV 192112Z AUTO VRB02KT 4SM -RA BR SCT013 OVC019 00/00 A2986 RMK SLP129
Loading
Personal Weather Stations






























Interactive Weather Map New forecast layout! Learn more

10-Day Weather Forecast

Advertisements
Track Severe Weather on mobile